sensor_id;sensor_type;location;lat;lon;timestamp;pressure;altitude;pressure_sealevel;temperature;humidity
43711;BME280;29309;42.682;23.372;2023-05-20T00:01:30;95512.50;;;12.82;89.90
43711;BME280;29309;42.682;23.372;2023-05-20T00:03:56;95512.59;;;12.84;90.39
43711;BME280;29309;42.682;23.372;2023-05-20T00:06:22;95509.81;;;12.84;90.46
43711;BME280;29309;42.682;23.372;2023-05-20T00:08:47;95509.81;;;12.84;90.17
43711;BME280;29309;42.682;23.372;2023-05-20T00:11:13;95510.31;;;12.80;90.16
43711;BME280;29309;42.682;23.372;2023-05-20T00:13:38;95516.34;;;12.75;90.42
43711;BME280;29309;42.682;23.372;2023-05-20T00:16:04;95513.63;;;12.77;90.96
43711;BME280;29309;42.682;23.372;2023-05-20T00:18:30;95513.63;;;12.77;90.79
43711;BME280;29309;42.682;23.372;2023-05-20T00:20:57;95514.81;;;12.72;90.57
43711;BME280;29309;42.682;23.372;2023-05-20T00:23:22;95510.56;;;12.71;91.17
43711;BME280;29309;42.682;23.372;2023-05-20T00:25:48;95502.22;;;12.71;91.40
43711;BME280;29309;42.682;23.372;2023-05-20T00:28:14;95496.66;;;12.71;91.58
43711;BME280;29309;42.682;23.372;2023-05-20T00:30:39;95495.13;;;12.68;92.12
43711;BME280;29309;42.682;23.372;2023-05-20T00:33:06;95486.38;;;12.60;91.46
43711;BME280;29309;42.682;23.372;2023-05-20T00:35:31;95483.13;;;12.50;91.85
43711;BME280;29309;42.682;23.372;2023-05-20T00:37:57;95493.56;;;12.49;91.77
43711;BME280;29309;42.682;23.372;2023-05-20T00:40:22;95489.84;;;12.45;92.16
43711;BME280;29309;42.682;23.372;2023-05-20T00:42:49;95485.66;;;12.44;92.53
43711;BME280;29309;42.682;23.372;2023-05-20T00:45:14;95482.56;;;12.38;92.48
43711;BME280;29309;42.682;23.372;2023-05-20T00:47:41;95481.84;;;12.37;92.79
43711;BME280;29309;42.682;23.372;2023-05-20T00:50:08;95479.69;;;12.36;92.78
43711;BME280;29309;42.682;23.372;2023-05-20T00:52:35;95471.41;;;12.38;92.79
43711;BME280;29309;42.682;23.372;2023-05-20T00:55:01;95471.13;;;12.31;92.35
43711;BME280;29309;42.682;23.372;2023-05-20T00:57:27;95471.22;;;12.33;91.97
43711;BME280;29309;42.682;23.372;2023-05-20T00:59:53;95486.31;;;12.28;92.43
43711;BME280;29309;42.682;23.372;2023-05-20T01:02:18;95484.78;;;12.25;92.53
43711;BME280;29309;42.682;23.372;2023-05-20T01:04:44;95474.91;;;12.22;92.59
43711;BME280;29309;42.682;23.372;2023-05-20T01:07:12;95481.88;;;12.23;92.49
43711;BME280;29309;42.682;23.372;2023-05-20T01:09:39;95481.06;;;12.21;92.81
43711;BME280;29309;42.682;23.372;2023-05-20T01:12:11;95486.03;;;12.22;93.01
43711;BME280;29309;42.682;23.372;2023-05-20T01:14:42;95490.16;;;12.21;92.83
43711;BME280;29309;42.682;23.372;2023-05-20T01:17:12;95477.81;;;12.11;92.67
43711;BME280;29309;42.682;23.372;2023-05-20T01:19:43;95470.50;;;12.04;92.70
43711;BME280;29309;42.682;23.372;2023-05-20T01:22:09;95479.38;;;12.00;91.89
43711;BME280;29309;42.682;23.372;2023-05-20T01:24:40;95472.09;;;11.93;91.89
43711;BME280;29309;42.682;23.372;2023-05-20T01:27:07;95483.09;;;11.91;92.27
43711;BME280;29309;42.682;23.372;2023-05-20T01:29:38;95484.34;;;11.88;92.01
43711;BME280;29309;42.682;23.372;2023-05-20T01:32:12;95483.75;;;11.90;92.79
43711;BME280;29309;42.682;23.372;2023-05-20T01:34:40;95483.09;;;11.91;92.66
43711;BME280;29309;42.682;23.372;2023-05-20T01:37:07;95486.41;;;11.88;93.04
43711;BME280;29309;42.682;23.372;2023-05-20T01:39:35;95494.03;;;11.87;92.94
43711;BME280;29309;42.682;23.372;2023-05-20T01:42:02;95487.66;;;11.84;92.79
43711;BME280;29309;42.682;23.372;2023-05-20T01:44:28;95487.66;;;11.84;93.03
43711;BME280;29309;42.682;23.372;2023-05-20T01:46:54;95476.31;;;11.80;92.95
43711;BME280;29309;42.682;23.372;2023-05-20T01:49:19;95482.69;;;11.83;93.04
43711;BME280;29309;42.682;23.372;2023-05-20T01:51:45;95477.84;;;11.83;93.24
43711;BME280;29309;42.682;23.372;2023-05-20T01:54:10;95469.31;;;11.79;92.99
43711;BME280;29309;42.682;23.372;2023-05-20T01:56:35;95468.50;;;11.77;92.93
43711;BME280;29309;42.682;23.372;2023-05-20T01:59:01;95479.00;;;11.78;92.62
43711;BME280;29309;42.682;23.372;2023-05-20T02:01:26;95475.06;;;11.70;92.50
43711;BME280;29309;42.682;23.372;2023-05-20T02:03:52;95475.00;;;11.68;92.96
43711;BME280;29309;42.682;23.372;2023-05-20T02:06:17;95470.63;;;11.65;93.52
43711;BME280;29309;42.682;23.372;2023-05-20T02:08:43;95464.38;;;11.64;93.19
43711;BME280;29309;42.682;23.372;2023-05-20T02:11:08;95467.06;;;11.62;93.04
43711;BME280;29309;42.682;23.372;2023-05-20T02:13:34;95471.78;;;11.60;93.02
43711;BME280;29309;42.682;23.372;2023-05-20T02:15:59;95477.06;;;11.54;93.43
43711;BME280;29309;42.682;23.372;2023-05-20T02:18:24;95467.28;;;11.53;93.77
43711;BME280;29309;42.682;23.372;2023-05-20T02:20:51;95466.47;;;11.50;93.44
43711;BME280;29309;42.682;23.372;2023-05-20T02:23:17;95459.53;;;11.51;93.46
43711;BME280;29309;42.682;23.372;2023-05-20T02:25:42;95462.94;;;11.50;93.43
43711;BME280;29309;42.682;23.372;2023-05-20T02:28:08;95459.34;;;11.47;92.77
43711;BME280;29309;42.682;23.372;2023-05-20T02:30:36;95465.41;;;11.44;92.32
43711;BME280;29309;42.682;23.372;2023-05-20T02:33:02;95456.78;;;11.38;92.74
43711;BME280;29309;42.682;23.372;2023-05-20T02:35:27;95453.50;;;11.27;92.53
43711;BME280;29309;42.682;23.372;2023-05-20T02:37:52;95455.44;;;11.25;92.53
43711;BME280;29309;42.682;23.372;2023-05-20T02:40:18;95467.16;;;11.23;93.12
43711;BME280;29309;42.682;23.372;2023-05-20T02:42:43;95464.41;;;11.23;93.33
43711;BME280;29309;42.682;23.372;2023-05-20T02:45:09;95459.44;;;11.22;93.17
43711;BME280;29309;42.682;23.372;2023-05-20T02:47:34;95460.38;;;11.26;93.96
43711;BME280;29309;42.682;23.372;2023-05-20T02:49:59;95461.00;;;11.25;94.03
43711;BME280;29309;42.682;23.372;2023-05-20T02:52:25;95458.84;;;11.23;93.80
43711;BME280;29309;42.682;23.372;2023-05-20T02:54:50;95455.25;;;11.21;93.41
43711;BME280;29309;42.682;23.372;2023-05-20T02:57:16;95457.91;;;11.19;93.55
43711;BME280;29309;42.682;23.372;2023-05-20T02:59:42;95458.53;;;11.17;93.73
43711;BME280;29309;42.682;23.372;2023-05-20T03:02:07;95458.63;;;11.19;93.41
43711;BME280;29309;42.682;23.372;2023-05-20T03:04:33;95469.00;;;11.19;93.50
43711;BME280;29309;42.682;23.372;2023-05-20T03:07:02;95474.56;;;11.19;93.74
43711;BME280;29309;42.682;23.372;2023-05-20T03:09:28;95480.13;;;11.19;92.97
43711;BME280;29309;42.682;23.372;2023-05-20T03:11:53;95484.97;;;11.18;93.34
43711;BME280;29309;42.682;23.372;2023-05-20T03:14:19;95485.59;;;11.17;93.76
43711;BME280;29309;42.682;23.372;2023-05-20T03:16:44;95486.19;;;11.15;94.00
43711;BME280;29309;42.682;23.372;2023-05-20T03:19:10;95482.69;;;11.15;93.94
43711;BME280;29309;42.682;23.372;2023-05-20T03:21:35;95487.53;;;11.14;94.10
43711;BME280;29309;42.682;23.372;2023-05-20T03:24:01;95492.06;;;11.21;94.26
43711;BME280;29309;42.682;23.372;2023-05-20T03:26:26;95485.28;;;11.24;94.55
43711;BME280;29309;42.682;23.372;2023-05-20T03:28:52;95491.16;;;11.30;94.47
43711;BME280;29309;42.682;23.372;2023-05-20T03:31:17;95483.84;;;11.37;94.34
43711;BME280;29309;42.682;23.372;2023-05-20T03:33:43;95482.22;;;11.46;94.92
43711;BME280;29309;42.682;23.372;2023-05-20T03:36:10;95482.63;;;11.54;95.04
43711;BME280;29309;42.682;23.372;2023-05-20T03:38:35;95487.31;;;11.65;94.40
43711;BME280;29309;42.682;23.372;2023-05-20T03:41:00;95487.88;;;11.75;94.08
43711;BME280;29309;42.682;23.372;2023-05-20T03:43:26;95496.72;;;11.85;93.64
43711;BME280;29309;42.682;23.372;2023-05-20T03:45:52;95494.53;;;11.97;92.39
43711;BME280;29309;42.682;23.372;2023-05-20T03:48:18;95508.00;;;12.16;92.14
43711;BME280;29309;42.682;23.372;2023-05-20T03:50:44;95504.47;;;12.29;90.79
43711;BME280;29309;42.682;23.372;2023-05-20T03:53:10;95498.31;;;12.47;89.85
43711;BME280;29309;42.682;23.372;2023-05-20T03:55:35;95504.63;;;12.63;89.42
43711;BME280;29309;42.682;23.372;2023-05-20T03:58:01;95509.63;;;12.80;88.50
43711;BME280;29309;42.682;23.372;2023-05-20T04:00:26;95512.34;;;12.94;88.06
43711;BME280;29309;42.682;23.372;2023-05-20T04:02:54;95509.69;;;13.11;87.27
43711;BME280;29309;42.682;23.372;2023-05-20T04:05:20;95512.00;;;13.32;86.30
43711;BME280;29309;42.682;23.372;2023-05-20T04:07:45;95520.38;;;13.48;85.57
43711;BME280;29309;42.682;23.372;2023-05-20T04:10:11;95520.53;;;13.68;84.50
43711;BME280;29309;42.682;23.372;2023-05-20T04:12:36;95526.16;;;13.86;82.79
43711;BME280;29309;42.682;23.372;2023-05-20T04:15:02;95524.84;;;14.04;81.79
43711;BME280;29309;42.682;23.372;2023-05-20T04:17:29;95523.91;;;14.15;80.44
43711;BME280;29309;42.682;23.372;2023-05-20T04:19:55;95513.25;;;14.27;78.98
43711;BME280;29309;42.682;23.372;2023-05-20T04:22:22;95505.41;;;14.40;77.13
43711;BME280;29309;42.682;23.372;2023-05-20T04:24:48;95514.59;;;14.26;74.63
43711;BME280;29309;42.682;23.372;2023-05-20T04:27:13;95516.56;;;14.06;75.04
43711;BME280;29309;42.682;23.372;2023-05-20T04:29:40;95517.59;;;13.97;76.73
43711;BME280;29309;42.682;23.372;2023-05-20T04:32:13;95517.22;;;14.22;76.33
43711;BME280;29309;42.682;23.372;2023-05-20T04:34:38;95523.34;;;14.35;75.51
43711;BME280;29309;42.682;23.372;2023-05-20T04:37:04;95517.38;;;14.60;75.59
43711;BME280;29309;42.682;23.372;2023-05-20T04:39:31;95525.97;;;14.84;73.81
43711;BME280;29309;42.682;23.372;2023-05-20T04:41:57;95532.03;;;14.96;72.58
43711;BME280;29309;42.682;23.372;2023-05-20T04:44:23;95543.16;;;14.94;70.63
43711;BME280;29309;42.682;23.372;2023-05-20T04:46:50;95529.19;;;14.94;70.91
43711;BME280;29309;42.682;23.372;2023-05-20T04:49:16;95527.00;;;14.92;70.91
43711;BME280;29309;42.682;23.372;2023-05-20T04:51:42;95535.91;;;14.87;69.93
43711;BME280;29309;42.682;23.372;2023-05-20T04:54:08;95542.03;;;14.83;69.30
43711;BME280;29309;42.682;23.372;2023-05-20T04:56:33;95535.97;;;14.71;69.16
43711;BME280;29309;42.682;23.372;2023-05-20T04:58:59;95531.25;;;14.58;69.43
43711;BME280;29309;42.682;23.372;2023-05-20T05:01:24;95539.06;;;14.44;70.02
43711;BME280;29309;42.682;23.372;2023-05-20T05:03:49;95531.78;;;14.37;71.29
43711;BME280;29309;42.682;23.372;2023-05-20T05:06:15;95541.56;;;14.36;72.30
43711;BME280;29309;42.682;23.372;2023-05-20T05:08:41;95532.00;;;14.25;73.10
43711;BME280;29309;42.682;23.372;2023-05-20T05:11:06;95539.00;;;14.26;73.54
43711;BME280;29309;42.682;23.372;2023-05-20T05:13:32;95529.28;;;14.27;73.76
43711;BME280;29309;42.682;23.372;2023-05-20T05:16:00;95530.75;;;14.28;73.45
43711;BME280;29309;42.682;23.372;2023-05-20T05:18:26;95532.72;;;14.25;73.22
43711;BME280;29309;42.682;23.372;2023-05-20T05:21:01;95537.66;;;14.27;72.09
43711;BME280;29309;42.682;23.372;2023-05-20T05:23:27;95525.06;;;14.26;71.71
43711;BME280;29309;42.682;23.372;2023-05-20T05:25:52;95521.53;;;14.25;72.06
43711;BME280;29309;42.682;23.372;2023-05-20T05:28:18;95524.59;;;14.32;72.26
43711;BME280;29309;42.682;23.372;2023-05-20T05:30:43;95519.84;;;14.34;72.07
43711;BME280;29309;42.682;23.372;2023-05-20T05:33:09;95512.41;;;14.41;72.79
43711;BME280;29309;42.682;23.372;2023-05-20T05:35:35;95521.91;;;14.51;72.73
43711;BME280;29309;42.682;23.372;2023-05-20T05:38:00;95519.94;;;14.54;71.59
43711;BME280;29309;42.682;23.372;2023-05-20T05:40:26;95524.88;;;14.55;71.53
43711;BME280;29309;42.682;23.372;2023-05-20T05:42:51;95516.03;;;14.61;72.08
43711;BME280;29309;42.682;23.372;2023-05-20T05:45:17;95519.22;;;14.71;72.06
43711;BME280;29309;42.682;23.372;2023-05-20T05:47:42;95522.22;;;14.77;71.43
43711;BME280;29309;42.682;23.372;2023-05-20T05:50:08;95531.00;;;14.87;71.62
43711;BME280;29309;42.682;23.372;2023-05-20T05:52:34;95530.03;;;14.98;71.29
43711;BME280;29309;42.682;23.372;2023-05-20T05:55:01;95532.09;;;15.15;70.76
43711;BME280;29309;42.682;23.372;2023-05-20T05:57:26;95524.03;;;15.43;70.54
43711;BME280;29309;42.682;23.372;2023-05-20T05:59:57;95522.84;;;15.88;69.06
43711;BME280;29309;42.682;23.372;2023-05-20T06:02:28;95522.00;;;16.46;68.02
43711;BME280;29309;42.682;23.372;2023-05-20T06:04:54;95513.53;;;17.11;65.66
43711;BME280;29309;42.682;23.372;2023-05-20T06:07:20;95507.38;;;17.64;63.61
43711;BME280;29309;42.682;23.372;2023-05-20T06:09:46;95505.22;;;18.14;61.71
43711;BME280;29309;42.682;23.372;2023-05-20T06:12:11;95501.41;;;18.59;59.33
43711;BME280;29309;42.682;23.372;2023-05-20T06:14:37;95511.75;;;19.10;57.32
43711;BME280;29309;42.682;23.372;2023-05-20T06:17:03;95496.66;;;19.61;56.30
43711;BME280;29309;42.682;23.372;2023-05-20T06:19:28;95496.97;;;20.15;53.42
43711;BME280;29309;42.682;23.372;2023-05-20T06:21:55;95497.03;;;20.57;51.89
43711;BME280;29309;42.682;23.372;2023-05-20T06:24:22;95494.78;;;20.94;50.12
43711;BME280;29309;42.682;23.372;2023-05-20T06:26:47;95493.16;;;21.29;49.00
43711;BME280;29309;42.682;23.372;2023-05-20T06:29:14;95499.22;;;21.61;46.54
43711;BME280;29309;42.682;23.372;2023-05-20T06:31:40;95493.69;;;21.69;46.17
43711;BME280;29309;42.682;23.372;2023-05-20T06:34:05;95494.00;;;21.95;45.78
43711;BME280;29309;42.682;23.372;2023-05-20T06:36:31;95487.13;;;22.15;43.97
43711;BME280;29309;42.682;23.372;2023-05-20T06:38:56;95480.97;;;22.34;43.52
43711;BME280;29309;42.682;23.372;2023-05-20T06:41:21;95473.44;;;22.63;42.94
43711;BME280;29309;42.682;23.372;2023-05-20T06:43:47;95470.19;;;23.03;42.71
43711;BME280;29309;42.682;23.372;2023-05-20T06:46:12;95478.16;;;23.37;42.06
43711;BME280;29309;42.682;23.372;2023-05-20T06:48:38;95474.75;;;23.57;41.11
43711;BME280;29309;42.682;23.372;2023-05-20T06:51:06;95472.75;;;23.85;40.38
43711;BME280;29309;42.682;23.372;2023-05-20T06:53:33;95472.84;;;24.18;39.64
43711;BME280;29309;42.682;23.372;2023-05-20T06:55:59;95472.91;;;24.52;39.33
43711;BME280;29309;42.682;23.372;2023-05-20T06:58:25;95477.84;;;24.72;38.42
43711;BME280;29309;42.682;23.372;2023-05-20T07:00:50;95474.34;;;24.91;37.79
43711;BME280;29309;42.682;23.372;2023-05-20T07:03:16;95475.72;;;25.21;38.03
43711;BME280;29309;42.682;23.372;2023-05-20T07:05:41;95479.94;;;25.34;36.79
43711;BME280;29309;42.682;23.372;2023-05-20T07:08:07;95482.03;;;25.47;37.46
43711;BME280;29309;42.682;23.372;2023-05-20T07:10:33;95472.72;;;25.73;36.68
43711;BME280;29309;42.682;23.372;2023-05-20T07:12:59;95469.75;;;25.98;35.25
43711;BME280;29309;42.682;23.372;2023-05-20T07:15:24;95458.31;;;26.10;34.67
43711;BME280;29309;42.682;23.372;2023-05-20T07:17:50;95457.50;;;26.33;35.54
43711;BME280;29309;42.682;23.372;2023-05-20T07:20:15;95469.34;;;26.64;35.58
43711;BME280;29309;42.682;23.372;2023-05-20T07:22:41;95463.59;;;26.70;34.68
43711;BME280;29309;42.682;23.372;2023-05-20T07:25:08;95452.97;;;26.63;34.93
43711;BME280;29309;42.682;23.372;2023-05-20T07:27:34;95460.84;;;26.56;33.38
43711;BME280;29309;42.682;23.372;2023-05-20T07:29:59;95456.59;;;26.57;33.34
43711;BME280;29309;42.682;23.372;2023-05-20T07:32:25;95454.63;;;26.31;32.43
43711;BME280;29309;42.682;23.372;2023-05-20T07:34:50;95454.19;;;25.86;33.54
43711;BME280;29309;42.682;23.372;2023-05-20T07:37:16;95464.28;;;25.45;34.12
43711;BME280;29309;42.682;23.372;2023-05-20T07:39:41;95461.50;;;25.25;35.11
43711;BME280;29309;42.682;23.372;2023-05-20T07:42:07;95458.59;;;25.33;34.95
43711;BME280;29309;42.682;23.372;2023-05-20T07:44:32;95462.13;;;25.45;34.08
43711;BME280;29309;42.682;23.372;2023-05-20T07:46:58;95455.00;;;25.48;33.90
43711;BME280;29309;42.682;23.372;2023-05-20T07:49:23;95461.47;;;25.23;33.82
43711;BME280;29309;42.682;23.372;2023-05-20T07:51:49;95461.50;;;25.17;35.08
43711;BME280;29309;42.682;23.372;2023-05-20T07:54:15;95457.19;;;25.30;34.54
43711;BME280;29309;42.682;23.372;2023-05-20T07:56:40;95459.25;;;25.68;34.01
43711;BME280;29309;42.682;23.372;2023-05-20T07:59:05;95457.75;;;25.77;32.74
43711;BME280;29309;42.682;23.372;2023-05-20T08:01:31;95454.22;;;25.78;33.74
43711;BME280;29309;42.682;23.372;2023-05-20T08:03:57;95452.69;;;25.98;32.86
43711;BME280;29309;42.682;23.372;2023-05-20T08:06:25;95453.41;;;25.94;32.34
43711;BME280;29309;42.682;23.372;2023-05-20T08:08:51;95449.03;;;26.13;33.57
43711;BME280;29309;42.682;23.372;2023-05-20T08:11:18;95445.47;;;26.17;32.85
43711;BME280;29309;42.682;23.372;2023-05-20T08:13:43;95454.56;;;26.43;32.59
43711;BME280;29309;42.682;23.372;2023-05-20T08:16:08;95448.19;;;26.39;32.49
43711;BME280;29309;42.682;23.372;2023-05-20T08:18:34;95446.91;;;26.10;33.51
43711;BME280;29309;42.682;23.372;2023-05-20T08:21:04;95444.09;;;26.06;33.54
43711;BME280;29309;42.682;23.372;2023-05-20T08:23:32;95438.28;;;26.30;33.56
43711;BME280;29309;42.682;23.372;2023-05-20T08:25:57;95440.94;;;26.56;33.99
43711;BME280;29309;42.682;23.372;2023-05-20T08:28:26;95439.97;;;26.90;32.47
43711;BME280;29309;42.682;23.372;2023-05-20T08:30:52;95439.19;;;26.98;32.16
43711;BME280;29309;42.682;23.372;2023-05-20T08:33:17;95431.97;;;27.03;32.11
43711;BME280;29309;42.682;23.372;2023-05-20T08:35:44;95447.69;;;27.02;31.22
43711;BME280;29309;42.682;23.372;2023-05-20T08:38:09;95434.47;;;26.64;31.81
43711;BME280;29309;42.682;23.372;2023-05-20T08:40:35;95432.63;;;26.26;32.38
43711;BME280;29309;42.682;23.372;2023-05-20T08:43:00;95432.69;;;26.10;32.67
43711;BME280;29309;42.682;23.372;2023-05-20T08:45:27;95432.75;;;26.00;33.61
43711;BME280;29309;42.682;23.372;2023-05-20T08:47:56;95438.31;;;26.24;34.88
43711;BME280;29309;42.682;23.372;2023-05-20T08:50:22;95436.13;;;26.32;33.04
43711;BME280;29309;42.682;23.372;2023-05-20T08:52:48;95436.75;;;26.41;32.92
43711;BME280;29309;42.682;23.372;2023-05-20T08:55:19;95440.34;;;26.37;33.76
43711;BME280;29309;42.682;23.372;2023-05-20T08:57:53;95443.41;;;26.03;33.04
43711;BME280;29309;42.682;23.372;2023-05-20T09:00:20;95436.47;;;25.72;33.34
43711;BME280;29309;42.682;23.372;2023-05-20T09:02:48;95435.22;;;25.20;34.67
43711;BME280;29309;42.682;23.372;2023-05-20T09:05:13;95429.56;;;25.00;34.21
43711;BME280;29309;42.682;23.372;2023-05-20T09:07:39;95420.38;;;24.65;35.06
43711;BME280;29309;42.682;23.372;2023-05-20T09:10:07;95431.72;;;24.79;35.53
43711;BME280;29309;42.682;23.372;2023-05-20T09:12:32;95435.28;;;24.74;35.92
43711;BME280;29309;42.682;23.372;2023-05-20T09:14:58;95427.47;;;24.44;36.30
43711;BME280;29309;42.682;23.372;2023-05-20T09:17:23;95426.75;;;24.19;36.15
43711;BME280;29309;42.682;23.372;2023-05-20T09:19:49;95418.91;;;24.01;36.91
43711;BME280;29309;42.682;23.372;2023-05-20T09:22:26;95409.63;;;23.85;37.99
43711;BME280;29309;42.682;23.372;2023-05-20T09:24:52;95410.38;;;23.93;37.38
43711;BME280;29309;42.682;23.372;2023-05-20T09:27:18;95417.50;;;24.11;37.45
43711;BME280;29309;42.682;23.372;2023-05-20T09:29:46;95413.94;;;24.00;37.43
43711;BME280;29309;42.682;23.372;2023-05-20T09:32:13;95416.06;;;23.97;38.56
43711;BME280;29309;42.682;23.372;2023-05-20T09:34:38;95411.81;;;23.94;38.35
43711;BME280;29309;42.682;23.372;2023-05-20T09:37:09;95401.84;;;23.85;38.53
43711;BME280;29309;42.682;23.372;2023-05-20T09:39:55;95401.16;;;23.97;38.83
43711;BME280;29309;42.682;23.372;2023-05-20T09:42:42;95389.13;;;23.94;38.68
43711;BME280;29309;42.682;23.372;2023-05-20T09:45:12;95394.75;;;23.88;38.99
43711;BME280;29309;42.682;23.372;2023-05-20T09:47:38;95391.91;;;23.76;38.68
43711;BME280;29309;42.682;23.372;2023-05-20T09:50:08;95382.69;;;23.66;38.32
43711;BME280;29309;42.682;23.372;2023-05-20T09:52:38;95386.16;;;23.52;39.41
43711;BME280;29309;42.682;23.372;2023-05-20T09:55:07;95390.31;;;23.31;38.81
43711;BME280;29309;42.682;23.372;2023-05-20T09:57:35;95382.53;;;23.31;39.45
43711;BME280;29309;42.682;23.372;2023-05-20T10:00:02;95382.56;;;23.35;39.28
43711;BME280;29309;42.682;23.372;2023-05-20T10:02:29;95375.44;;;23.30;38.92
43711;BME280;29309;42.682;23.372;2023-05-20T10:04:56;95369.13;;;23.40;37.64
43711;BME280;29309;42.682;23.372;2023-05-20T10:09:58;95365.56;;;23.39;39.14
43711;BME280;29309;42.682;23.372;2023-05-20T10:18:22;95344.97;;;23.27;39.33
43711;BME280;29309;42.682;23.372;2023-05-20T10:20:52;95356.25;;;23.13;38.76
43711;BME280;29309;42.682;23.372;2023-05-20T10:23:28;95342.06;;;23.09;36.87
43711;BME280;29309;42.682;23.372;2023-05-20T10:25:55;95353.41;;;23.07;36.56
43711;BME280;29309;42.682;23.372;2023-05-20T10:28:32;95345.53;;;22.87;35.89
43711;BME280;29309;42.682;23.372;2023-05-20T10:30:59;95341.31;;;22.98;37.08
43711;BME280;29309;42.682;23.372;2023-05-20T10:33:28;95359.78;;;23.07;35.89
43711;BME280;29309;42.682;23.372;2023-05-20T10:36:00;95344.13;;;22.94;35.67
43711;BME280;29309;42.682;23.372;2023-05-20T10:38:26;95341.31;;;22.94;35.48
43711;BME280;29309;42.682;23.372;2023-05-20T10:40:52;95330.69;;;22.92;36.99
43711;BME280;29309;42.682;23.372;2023-05-20T10:43:27;95332.78;;;22.88;37.91
43711;BME280;29309;42.682;23.372;2023-05-20T10:45:56;95324.25;;;22.78;36.11
43711;BME280;29309;42.682;23.372;2023-05-20T10:50:49;95313.59;;;22.70;36.55
43711;BME280;29309;42.682;23.372;2023-05-20T10:53:14;95324.09;;;22.57;36.04
43711;BME280;29309;42.682;23.372;2023-05-20T10:55:47;95307.63;;;22.20;36.53
43711;BME280;29309;42.682;23.372;2023-05-20T10:58:13;95308.31;;;22.20;37.06
43711;BME280;29309;42.682;23.372;2023-05-20T11:00:40;95299.91;;;22.30;37.36
43711;BME280;29309;42.682;23.372;2023-05-20T11:03:06;95292.22;;;22.45;37.88
43711;BME280;29309;42.682;23.372;2023-05-20T11:05:32;95305.56;;;22.32;37.63
43711;BME280;29309;42.682;23.372;2023-05-20T11:08:06;95293.63;;;22.46;36.98
43711;BME280;29309;42.682;23.372;2023-05-20T11:10:32;95302.91;;;22.56;38.41
43711;BME280;29309;42.682;23.372;2023-05-20T11:13:00;95302.88;;;22.54;38.21
43711;BME280;29309;42.682;23.372;2023-05-20T11:15:26;95304.91;;;22.38;38.74
43711;BME280;29309;42.682;23.372;2023-05-20T11:17:59;95303.41;;;22.29;40.12
43711;BME280;29309;42.682;23.372;2023-05-20T11:20:25;95285.78;;;22.36;41.03
43711;BME280;29309;42.682;23.372;2023-05-20T11:22:51;95287.25;;;22.43;41.27
43711;BME280;29309;42.682;23.372;2023-05-20T11:25:18;95280.91;;;22.45;40.65
43711;BME280;29309;42.682;23.372;2023-05-20T11:27:44;95278.06;;;22.47;40.61
43711;BME280;29309;42.682;23.372;2023-05-20T11:30:14;95280.88;;;22.39;38.53
43711;BME280;29309;42.682;23.372;2023-05-20T11:33:15;95273.06;;;22.35;38.56
43711;BME280;29309;42.682;23.372;2023-05-20T11:35:46;95275.09;;;22.25;39.50
43711;BME280;29309;42.682;23.372;2023-05-20T11:38:11;95270.03;;;22.07;40.22
43711;BME280;29309;42.682;23.372;2023-05-20T11:40:42;95267.88;;;21.97;40.04
43711;BME280;29309;42.682;23.372;2023-05-20T11:43:10;95254.28;;;21.82;40.27
43711;BME280;29309;42.682;23.372;2023-05-20T11:45:40;95257.72;;;21.68;41.03
43711;BME280;29309;42.682;23.372;2023-05-20T11:48:06;95256.28;;;21.63;41.92
43711;BME280;29309;42.682;23.372;2023-05-20T11:50:35;95261.94;;;21.67;42.13
43711;BME280;29309;42.682;23.372;2023-05-20T11:53:09;95263.44;;;21.78;41.86
43711;BME280;29309;42.682;23.372;2023-05-20T11:58:16;95258.56;;;21.85;40.34
43711;BME280;29309;42.682;23.372;2023-05-20T12:00:42;95266.22;;;21.70;40.49
43711;BME280;29309;42.682;23.372;2023-05-20T12:03:08;95246.41;;;21.66;41.15
43711;BME280;29309;42.682;23.372;2023-05-20T12:05:33;95247.84;;;21.71;41.22
43711;BME280;29309;42.682;23.372;2023-05-20T12:07:59;95242.91;;;21.72;42.01
43711;BME280;29309;42.682;23.372;2023-05-20T12:10:24;95250.00;;;21.73;41.50
43711;BME280;29309;42.682;23.372;2023-05-20T12:12:49;95232.19;;;21.54;42.95
43711;BME280;29309;42.682;23.372;2023-05-20T12:15:15;95241.28;;;21.44;43.46
43711;BME280;29309;42.682;23.372;2023-05-20T12:17:48;95252.53;;;21.40;44.02
43711;BME280;29309;42.682;23.372;2023-05-20T12:20:16;95238.28;;;21.26;43.37
43711;BME280;29309;42.682;23.372;2023-05-20T12:22:43;95261.47;;;21.15;43.18
43711;BME280;29309;42.682;23.372;2023-05-20T12:25:13;95264.16;;;21.06;42.36
43711;BME280;29309;42.682;23.372;2023-05-20T12:27:44;95261.19;;;20.90;41.21
43711;BME280;29309;42.682;23.372;2023-05-20T12:30:14;95272.41;;;20.86;41.76
43711;BME280;29309;42.682;23.372;2023-05-20T12:32:41;95287.81;;;20.77;42.17
43711;BME280;29309;42.682;23.372;2023-05-20T12:35:08;95282.03;;;20.65;43.05
43711;BME280;29309;42.682;23.372;2023-05-20T12:37:34;95279.53;;;20.35;41.36
43711;BME280;29309;42.682;23.372;2023-05-20T12:40:00;95296.13;;;20.15;41.45
43711;BME280;29309;42.682;23.372;2023-05-20T12:42:26;95305.06;;;19.99;41.43
43711;BME280;29309;42.682;23.372;2023-05-20T12:44:51;95302.84;;;19.92;41.54
43711;BME280;29309;42.682;23.372;2023-05-20T12:47:18;95304.78;;;19.83;41.69
43711;BME280;29309;42.682;23.372;2023-05-20T12:49:43;95293.22;;;19.65;42.34
43711;BME280;29309;42.682;23.372;2023-05-20T12:52:08;95284.75;;;19.63;42.80
43711;BME280;29309;42.682;23.372;2023-05-20T12:54:34;95298.16;;;19.64;43.25
43711;BME280;29309;42.682;23.372;2023-05-20T12:56:59;95289.75;;;19.69;44.02
43711;BME280;29309;42.682;23.372;2023-05-20T12:59:25;95284.84;;;19.69;42.88
43711;BME280;29309;42.682;23.372;2023-05-20T13:01:50;95278.41;;;19.62;44.80